createdAt,value
2019-05-15T00:02:19.218Z,98.00
2019-05-15T00:04:49.805Z,97.90
2019-05-15T00:07:20.365Z,97.80
2019-05-15T00:09:50.931Z,97.90
2019-05-15T00:12:21.660Z,97.90
2019-05-15T00:14:52.486Z,97.70
2019-05-15T00:17:22.894Z,97.70
2019-05-15T00:19:53.480Z,97.60
2019-05-15T00:22:24.161Z,97.70
2019-05-15T00:24:54.849Z,97.90
2019-05-15T00:27:25.486Z,98.00
2019-05-15T00:29:57.933Z,98.00
2019-05-15T00:32:29.469Z,98.00
2019-05-15T00:35:00.921Z,98.10
2019-05-15T00:37:31.861Z,98.10
2019-05-15T00:40:02.694Z,98.10
2019-05-15T00:42:33.316Z,98.10
2019-05-15T00:45:04.240Z,98.10
2019-05-15T00:47:34.815Z,98.20
2019-05-15T00:50:08.725Z,98.20
2019-05-15T00:52:39.414Z,98.20
2019-05-15T00:55:11.437Z,98.20
2019-05-15T00:57:41.953Z,98.20
2019-05-15T01:00:12.618Z,98.20
2019-05-15T01:02:43.244Z,98.30
2019-05-15T01:05:14.142Z,98.30
2019-05-15T01:07:44.639Z,98.30
2019-05-15T01:10:15.147Z,98.40
2019-05-15T01:12:45.613Z,98.30
2019-05-15T01:15:18.295Z,98.30
2019-05-15T01:17:49.216Z,98.20
2019-05-15T01:20:19.780Z,98.10
2019-05-15T01:22:50.551Z,98.20
2019-05-15T01:25:21.051Z,98.20
2019-05-15T01:27:51.530Z,98.20
2019-05-15T01:30:23.241Z,98.20
2019-05-15T01:32:53.867Z,98.20
2019-05-15T01:35:24.614Z,98.20
2019-05-15T01:37:55.139Z,98.30
2019-05-15T01:40:25.807Z,98.20
2019-05-15T01:42:58.309Z,98.20
2019-05-15T01:45:28.931Z,98.30
2019-05-15T01:47:59.657Z,98.20
2019-05-15T01:50:30.207Z,98.30
2019-05-15T01:53:01.225Z,98.30
2019-05-15T01:55:31.713Z,98.30
2019-05-15T01:58:02.285Z,98.30
2019-05-15T02:00:33.031Z,98.40
2019-05-15T02:03:03.823Z,98.40
2019-05-15T02:05:34.701Z,98.30
2019-05-15T02:08:08.024Z,98.30
2019-05-15T02:10:39.178Z,98.30
2019-05-15T02:13:10.337Z,98.30
2019-05-15T02:15:40.801Z,98.30
2019-05-15T02:18:11.695Z,98.20
2019-05-15T02:20:42.388Z,98.20
2019-05-15T02:23:13.158Z,98.20
2019-05-15T02:25:43.888Z,98.30
2019-05-15T02:28:14.606Z,98.20
2019-05-15T02:30:45.349Z,98.20
2019-05-15T02:33:18.844Z,98.20
2019-05-15T02:35:50.061Z,98.30
2019-05-15T02:38:21.302Z,98.40
2019-05-15T02:40:51.998Z,98.40
2019-05-15T02:43:22.557Z,98.40
2019-05-15T02:45:53.288Z,98.40
2019-05-15T02:48:24.006Z,98.50
2019-05-15T02:50:54.673Z,98.50
2019-05-15T02:53:25.169Z,98.60
2019-05-15T02:55:55.736Z,98.60
2019-05-15T02:58:28.884Z,98.60
2019-05-15T03:00:59.260Z,98.60
2019-05-15T03:03:30.264Z,98.60
2019-05-15T03:06:01.010Z,98.60
2019-05-15T03:08:31.526Z,98.60
2019-05-15T03:11:02.134Z,98.60
2019-05-15T03:13:32.749Z,98.60
2019-05-15T03:16:03.228Z,98.60
2019-05-15T03:18:33.850Z,98.70
2019-05-15T03:21:04.444Z,98.70
2019-05-15T03:23:35.196Z,98.80
2019-05-15T03:26:08.633Z,98.70
2019-05-15T03:28:39.500Z,98.70
2019-05-15T03:31:32.289Z,98.80
2019-05-15T03:33:46.303Z,98.80
2019-05-15T03:36:15.365Z,98.70
2019-05-15T03:38:45.984Z,98.70
2019-05-15T03:41:19.368Z,98.70
2019-05-15T03:43:49.857Z,98.70
2019-05-15T03:46:20.466Z,98.80
2019-05-15T03:48:50.987Z,98.70
2019-05-15T03:51:21.522Z,98.80
2019-05-15T03:53:51.949Z,98.80
2019-05-15T03:56:22.709Z,98.90
2019-05-15T03:58:53.225Z,98.80
2019-05-15T04:01:33.527Z,98.80
2019-05-15T04:03:59.620Z,98.70
2019-05-15T04:06:29.921Z,98.80
2019-05-15T04:09:00.733Z,98.90
2019-05-15T04:11:32.671Z,98.70
2019-05-15T04:14:03.524Z,98.70
2019-05-15T04:16:34.304Z,98.80
2019-05-15T04:19:04.926Z,98.80
2019-05-15T04:21:41.174Z,98.80
2019-05-15T04:24:09.488Z,98.90
2019-05-15T04:26:41.547Z,98.80
2019-05-15T04:29:13.313Z,98.80
2019-05-15T04:31:55.764Z,98.60
2019-05-15T04:34:19.262Z,98.60
2019-05-15T04:36:49.982Z,98.60
2019-05-15T04:39:20.604Z,98.60
2019-05-15T04:41:51.306Z,98.60
2019-05-15T04:44:22.106Z,98.70
2019-05-15T04:46:54.859Z,98.60
2019-05-15T04:49:28.809Z,98.80
2019-05-15T04:52:03.204Z,98.90
2019-05-15T04:54:30.869Z,98.80
2019-05-15T04:57:01.572Z,98.70
2019-05-15T04:59:32.288Z,98.60
2019-05-15T05:02:16.273Z,98.70
2019-05-15T05:04:38.521Z,98.60
2019-05-15T05:07:09.384Z,98.60
2019-05-15T05:09:41.418Z,98.70
2019-05-15T05:12:12.120Z,98.90
2019-05-15T05:14:43.484Z,98.80
2019-05-15T05:17:13.990Z,98.70
2019-05-15T05:19:44.750Z,99.00
2019-05-15T05:22:15.356Z,98.60
2019-05-15T05:24:47.849Z,98.60
2019-05-15T05:27:18.515Z,98.60
2019-05-15T05:29:49.825Z,98.60
2019-05-15T05:32:31.380Z,98.40
2019-05-15T05:34:55.537Z,98.40
2019-05-15T05:37:27.969Z,98.50
2019-05-15T05:39:59.188Z,98.40
2019-05-15T05:42:30.269Z,98.50
2019-05-15T05:45:00.861Z,98.40
2019-05-15T05:47:32.087Z,98.60
2019-05-15T05:50:03.019Z,98.20
2019-05-15T05:52:34.420Z,98.10
2019-05-15T05:55:05.401Z,98.00
2019-05-15T05:57:38.044Z,98.10
2019-05-15T06:00:09.765Z,98.10
2019-05-15T06:02:48.053Z,98.40
2019-05-15T06:05:15.649Z,98.40
2019-05-15T06:07:48.682Z,98.30
2019-05-15T06:10:19.483Z,98.10
2019-05-15T06:12:50.253Z,98.10
2019-05-15T06:15:21.138Z,98.20
2019-05-15T06:17:51.915Z,98.10
2019-05-15T06:20:22.385Z,98.20
2019-05-15T06:22:54.657Z,98.30
2019-05-15T06:25:25.595Z,98.00
2019-05-15T06:27:58.364Z,98.10
2019-05-15T06:30:30.930Z,98.40
2019-05-15T06:33:09.159Z,98.10
2019-05-15T06:35:34.518Z,98.30
2019-05-15T06:38:05.402Z,98.10
2019-05-15T06:40:39.334Z,98.30
2019-05-15T06:43:09.187Z,98.20
2019-05-15T06:45:40.288Z,98.00
2019-05-15T06:48:10.993Z,97.80
2019-05-15T06:50:42.668Z,98.00
2019-05-15T06:53:13.676Z,98.00
2019-05-15T06:55:44.542Z,98.00
2019-05-15T06:58:15.118Z,97.90
2019-05-15T07:00:48.426Z,97.80
2019-05-15T07:03:24.948Z,97.90
2019-05-15T07:05:51.276Z,97.90
2019-05-15T07:08:21.954Z,98.10
2019-05-15T07:10:53.024Z,98.30
2019-05-15T07:13:24.107Z,98.20
2019-05-15T07:15:55.062Z,98.20
2019-05-15T07:18:28.172Z,98.10
2019-05-15T07:20:58.624Z,98.00
2019-05-15T07:23:30.815Z,98.00
2019-05-15T07:26:01.821Z,98.00
2019-05-15T07:28:32.318Z,98.00
2019-05-15T07:31:02.928Z,98.10
2019-05-15T07:33:39.006Z,98.10
2019-05-15T07:36:08.208Z,98.10
2019-05-15T07:38:39.209Z,98.10
2019-05-15T07:41:11.060Z,98.10
2019-05-15T07:43:41.652Z,98.10
2019-05-15T07:46:12.704Z,98.00
2019-05-15T07:48:44.053Z,97.90
2019-05-15T07:51:14.796Z,97.90
2019-05-15T07:53:45.347Z,97.90
2019-05-15T07:56:18.026Z,97.90
2019-05-15T07:58:52.527Z,97.80
2019-05-15T08:01:20.616Z,97.60
2019-05-15T08:03:59.572Z,97.60
2019-05-15T08:06:24.822Z,97.80
2019-05-15T08:08:55.542Z,98.10
2019-05-15T08:11:28.723Z,98.10
2019-05-15T08:13:59.264Z,98.10
2019-05-15T08:16:30.473Z,98.10
2019-05-15T08:19:01.356Z,98.10
2019-05-15T08:21:32.271Z,98.10
2019-05-15T08:24:04.901Z,98.10
2019-05-15T08:26:37.802Z,97.90
2019-05-15T08:29:08.527Z,98.10
2019-05-15T08:31:39.912Z,98.10
2019-05-15T08:34:15.872Z,98.20
2019-05-15T08:36:44.101Z,98.30
2019-05-15T08:39:15.319Z,98.40
2019-05-15T08:41:48.283Z,98.30
2019-05-15T08:44:18.886Z,98.30
2019-05-15T08:46:49.823Z,98.30
2019-05-15T08:49:20.806Z,98.30
2019-05-15T08:51:51.626Z,98.20
2019-05-15T08:54:22.288Z,98.30
2019-05-15T08:56:53.574Z,98.30
2019-05-15T08:59:25.767Z,98.20
2019-05-15T09:01:58.256Z,98.20
2019-05-15T09:04:34.615Z,98.30
2019-05-15T09:07:01.714Z,98.20
2019-05-15T09:09:32.430Z,98.40
2019-05-15T09:12:03.544Z,98.50
2019-05-15T09:14:34.460Z,98.50
2019-05-15T09:17:08.511Z,98.40
2019-05-15T09:19:38.758Z,98.40
2019-05-15T09:22:09.740Z,98.50
2019-05-15T09:24:41.642Z,98.50
2019-05-15T09:27:12.512Z,98.60
2019-05-15T09:29:44.759Z,98.60
2019-05-15T09:32:15.589Z,98.70
2019-05-15T09:34:51.706Z,98.50
2019-05-15T09:37:19.131Z,98.40
2019-05-15T09:39:50.070Z,98.30
2019-05-15T09:42:20.924Z,98.30
2019-05-15T09:44:51.898Z,98.20
2019-05-15T09:47:22.945Z,98.30
2019-05-15T09:49:53.976Z,98.40
2019-05-15T09:52:24.973Z,98.30
2019-05-15T09:54:55.855Z,98.50
2019-05-15T09:57:26.598Z,98.60
2019-05-15T09:59:58.964Z,98.30
2019-05-15T10:02:29.485Z,98.40
2019-05-15T10:05:06.372Z,98.40
2019-05-15T10:07:33.533Z,98.30
2019-05-15T10:10:04.786Z,98.30
2019-05-15T10:12:35.465Z,98.20
2019-05-15T10:15:11.221Z,98.20
2019-05-15T10:17:40.139Z,98.40
2019-05-15T10:20:11.322Z,98.40
2019-05-15T10:22:41.850Z,98.50
2019-05-15T10:25:12.969Z,98.70
2019-05-15T10:27:43.576Z,98.60
2019-05-15T10:30:15.278Z,98.70
2019-05-15T10:32:48.480Z,98.40
2019-05-15T10:35:25.730Z,98.40
2019-05-15T10:37:50.785Z,98.40
2019-05-15T10:40:21.732Z,98.40
2019-05-15T10:42:52.312Z,98.10
2019-05-15T10:45:23.203Z,98.10
2019-05-15T10:47:53.996Z,98.20
2019-05-15T10:50:25.028Z,98.10
2019-05-15T10:52:55.542Z,98.10
2019-05-15T10:55:26.228Z,98.10
2019-05-15T10:57:58.499Z,98.20
2019-05-15T11:00:29.306Z,98.30
2019-05-15T11:03:00.003Z,98.20
2019-05-15T11:05:41.055Z,98.20
2019-05-15T11:08:04.488Z,98.10
2019-05-15T11:10:41.479Z,98.30
2019-05-15T11:13:09.039Z,98.40
2019-05-15T11:15:42.556Z,98.40
2019-05-15T11:18:11.991Z,98.60
2019-05-15T11:20:42.799Z,98.20
2019-05-15T11:23:20.063Z,98.30
2019-05-15T11:25:50.787Z,98.30
2019-05-15T11:28:21.360Z,98.40
2019-05-15T11:30:52.264Z,98.40
2019-05-15T11:33:23.256Z,98.40
2019-05-15T11:36:00.470Z,98.30
2019-05-15T11:38:32.403Z,98.30
2019-05-15T11:41:04.758Z,98.30
2019-05-15T11:43:38.277Z,98.20
2019-05-15T11:46:09.886Z,98.10
2019-05-15T11:48:40.325Z,98.10
2019-05-15T11:51:11.153Z,98.30
2019-05-15T11:53:42.361Z,98.40
2019-05-15T11:56:13.393Z,98.50
2019-05-15T11:58:44.586Z,98.50
2019-05-15T12:01:15.380Z,98.40
2019-05-15T12:03:46.513Z,98.20
2019-05-15T12:06:22.450Z,98.30
2019-05-15T12:08:49.845Z,98.50
2019-05-15T12:11:33.232Z,98.50
2019-05-15T12:13:53.016Z,98.40
2019-05-15T12:16:23.780Z,98.50
2019-05-15T12:18:54.757Z,98.60
2019-05-15T12:21:28.409Z,98.50
2019-05-15T12:23:59.068Z,98.50
2019-05-15T12:26:29.859Z,98.40
2019-05-15T12:29:00.419Z,98.50
2019-05-15T12:31:31.234Z,98.30
2019-05-15T12:34:02.052Z,98.40
2019-05-15T12:36:51.319Z,98.50
2019-05-15T12:59:44.865Z,98.50
2019-05-15T13:02:01.077Z,98.60
2019-05-15T13:07:16.338Z,98.70
2019-05-15T13:09:42.772Z,98.70
2019-05-15T13:12:13.736Z,99.10
2019-05-15T13:14:44.393Z,98.70
2019-05-15T13:17:15.289Z,98.60
2019-05-15T13:19:48.102Z,98.60
2019-05-15T13:22:24.378Z,98.70
2019-05-15T13:24:50.576Z,98.70
2019-05-15T13:27:21.310Z,98.80
2019-05-15T13:29:52.675Z,98.50
2019-05-15T13:32:23.560Z,98.70
2019-05-15T13:34:54.277Z,98.90
2019-05-15T13:37:27.357Z,98.80
2019-05-15T13:39:58.711Z,98.80
2019-05-15T13:42:29.014Z,98.80
2019-05-15T13:44:59.662Z,98.80
2019-05-15T13:47:30.724Z,99.00
2019-05-15T13:50:01.520Z,99.00
2019-05-15T13:52:32.193Z,98.90
2019-05-15T13:55:02.825Z,98.90
2019-05-15T13:57:33.356Z,99.00
2019-05-15T14:00:03.875Z,99.00
2019-05-15T14:02:35.762Z,99.10
2019-05-15T14:05:09.291Z,99.20
2019-05-15T14:07:49.024Z,99.20
2019-05-15T14:10:12.060Z,99.40
2019-05-15T14:12:42.718Z,99.30
2019-05-15T14:15:13.427Z,99.30
2019-05-15T14:17:44.211Z,99.30
2019-05-15T14:20:15.587Z,99.10
2019-05-15T14:22:48.426Z,99.30
2019-05-15T14:25:18.521Z,99.20
2019-05-15T14:27:49.462Z,99.20
2019-05-15T14:30:20.373Z,99.50
2019-05-15T14:32:51.024Z,99.10
2019-05-15T14:35:21.531Z,99.10
2019-05-15T14:38:02.671Z,99.00
2019-05-15T14:40:24.361Z,99.00
2019-05-15T14:42:54.962Z,99.00
2019-05-15T14:45:27.669Z,98.90
2019-05-15T14:47:58.201Z,98.60
2019-05-15T14:50:28.920Z,98.60
2019-05-15T14:52:59.475Z,98.60
2019-05-15T14:55:33.709Z,98.60
2019-05-15T14:58:02.262Z,98.60
2019-05-15T15:00:34.685Z,98.60
2019-05-15T15:03:05.237Z,98.60
2019-05-15T15:05:38.316Z,98.70
2019-05-15T15:08:21.527Z,98.70
2019-05-15T15:10:41.668Z,98.80
2019-05-15T15:13:12.241Z,98.80
2019-05-15T15:15:43.324Z,98.90
2019-05-15T15:18:13.903Z,98.90
2019-05-15T15:20:48.107Z,99.00
2019-05-15T15:23:18.287Z,98.90
2019-05-15T15:25:49.246Z,98.70
2019-05-15T15:28:20.125Z,98.80
2019-05-15T15:30:50.829Z,98.60
2019-05-15T15:33:21.521Z,98.60
2019-05-15T15:35:52.068Z,98.70
2019-05-15T15:38:37.608Z,98.60
2019-05-15T15:40:55.823Z,98.60
2019-05-15T15:43:28.825Z,98.70
2019-05-15T15:45:59.863Z,98.80
2019-05-15T15:48:30.512Z,98.90
2019-05-15T15:51:01.235Z,99.00
2019-05-15T15:53:32.160Z,98.90
2019-05-15T15:56:03.097Z,98.80
2019-05-15T15:58:34.195Z,98.80
2019-05-15T16:01:05.044Z,98.80
2019-05-15T16:03:37.874Z,98.60
2019-05-15T16:06:08.328Z,98.70
2019-05-15T16:08:51.956Z,98.50
2019-05-15T16:11:11.577Z,98.60
2019-05-15T16:13:42.122Z,98.80
2019-05-15T16:16:12.732Z,98.80
2019-05-15T16:18:44.029Z,98.90
2019-05-15T16:21:14.804Z,99.00
2019-05-15T16:23:48.033Z,99.10
2019-05-15T16:26:19.490Z,99.10
2019-05-15T16:28:50.638Z,99.10
2019-05-15T16:31:21.513Z,99.10
2019-05-15T16:33:52.688Z,99.10
2019-05-15T16:36:23.607Z,99.00
2019-05-15T16:39:05.260Z,99.20
2019-05-15T16:41:29.027Z,99.20
2019-05-15T16:43:59.645Z,99.20
2019-05-15T16:46:30.824Z,99.20
2019-05-15T16:49:01.755Z,99.30
2019-05-15T16:51:32.982Z,99.20
2019-05-15T16:54:04.126Z,99.10
2019-05-15T16:56:36.580Z,99.20
2019-05-15T16:59:07.845Z,99.10
2019-05-15T17:01:39.334Z,99.00
2019-05-15T17:04:10.313Z,99.10
2019-05-15T17:06:41.541Z,99.20
2019-05-15T17:09:21.147Z,99.30
2019-05-15T17:11:49.009Z,99.30
2019-05-15T17:14:20.048Z,99.30
2019-05-15T17:16:50.990Z,99.30
2019-05-15T17:19:21.640Z,99.30
2019-05-15T17:21:52.742Z,99.40
2019-05-15T17:24:23.551Z,99.40
2019-05-15T17:26:54.210Z,99.60
2019-05-15T17:29:25.435Z,99.30
2019-05-15T17:31:56.276Z,99.40
2019-05-15T17:34:28.592Z,99.30
2019-05-15T17:36:59.236Z,99.40
2019-05-15T17:39:36.535Z,99.50
2019-05-15T17:42:04.148Z,99.50
2019-05-15T17:44:37.774Z,99.60
2019-05-15T17:47:09.688Z,99.70
2019-05-15T17:49:40.980Z,99.70
2019-05-15T17:52:11.991Z,99.80
2019-05-15T17:54:45.182Z,99.80
2019-05-15T17:57:15.755Z,99.80
2019-05-15T17:59:48.627Z,99.90
2019-05-15T18:02:19.579Z,99.90
2019-05-15T18:04:50.897Z,99.90
2019-05-15T18:07:21.589Z,99.90
2019-05-15T18:09:54.407Z,99.90
2019-05-15T18:12:26.191Z,99.90
2019-05-15T18:14:58.349Z,99.90
2019-05-15T18:17:29.516Z,99.90
2019-05-15T18:20:00.402Z,99.80
2019-05-15T18:22:38.557Z,99.90
2019-05-15T18:25:10.789Z,99.90
2019-05-15T18:27:41.908Z,99.90
2019-05-15T18:30:13.285Z,99.90
2019-05-15T18:32:45.449Z,99.90
2019-05-15T18:35:18.790Z,99.90
2019-05-15T18:37:49.747Z,99.90
2019-05-15T18:40:21.769Z,99.90
2019-05-15T18:42:52.386Z,99.90
2019-05-15T18:45:24.068Z,99.80
2019-05-15T18:47:55.083Z,99.70
2019-05-15T18:50:27.985Z,99.80
2019-05-15T18:52:58.778Z,99.80
2019-05-15T18:55:29.916Z,99.90
2019-05-15T18:58:09.037Z,99.90
2019-05-15T19:00:40.353Z,99.80
2019-05-15T19:03:19.700Z,99.80
2019-05-15T19:05:44.185Z,99.90
2019-05-15T19:08:15.126Z,99.90
2019-05-15T19:10:47.735Z,99.90
2019-05-15T19:13:18.592Z,99.80
2019-05-15T19:15:49.627Z,99.70
2019-05-15T19:18:20.685Z,99.80
2019-05-15T19:20:51.537Z,99.80
2019-05-15T19:23:22.435Z,99.90
2019-05-15T19:25:53.253Z,99.80
2019-05-15T19:28:24.619Z,99.80
2019-05-15T19:30:55.464Z,99.70
2019-05-15T19:33:34.472Z,99.60
2019-05-15T19:35:58.893Z,99.70
2019-05-15T19:38:30.017Z,99.70
2019-05-15T19:41:03.778Z,99.80
2019-05-15T19:43:34.297Z,99.60
2019-05-15T19:46:07.808Z,99.70
2019-05-15T19:48:38.607Z,99.60
2019-05-15T19:51:09.806Z,99.70
2019-05-15T19:53:40.980Z,99.70
2019-05-15T19:56:12.342Z,99.80
2019-05-15T19:58:43.787Z,99.70
2019-05-15T20:01:15.157Z,99.60
2019-05-15T20:03:52.251Z,99.80
2019-05-15T20:06:19.453Z,99.80
2019-05-15T20:08:50.598Z,99.70
2019-05-15T20:11:21.555Z,99.70
2019-05-15T20:13:52.597Z,99.80
2019-05-15T20:16:23.507Z,99.80
2019-05-15T20:18:54.587Z,99.80
2019-05-15T20:21:25.718Z,99.70
2019-05-15T20:23:58.088Z,99.80
2019-05-15T20:26:29.134Z,99.80
2019-05-15T20:29:00.099Z,99.80
2019-05-15T20:31:32.335Z,99.70
2019-05-15T20:34:06.029Z,99.60
2019-05-15T20:36:38.334Z,99.60
2019-05-15T20:39:08.711Z,99.60
2019-05-15T20:41:40.124Z,99.80
2019-05-15T20:44:10.659Z,99.80
2019-05-15T20:46:41.399Z,99.80
2019-05-15T20:49:12.230Z,99.80
2019-05-15T20:51:43.507Z,99.70
2019-05-15T20:54:14.495Z,99.70
2019-05-15T20:56:45.632Z,99.60
2019-05-15T20:59:18.235Z,99.50
2019-05-15T21:01:50.847Z,99.50
2019-05-15T21:04:23.813Z,99.50
2019-05-15T21:06:54.991Z,99.50
2019-05-15T21:09:28.428Z,99.50
2019-05-15T21:11:58.885Z,99.40
2019-05-15T21:14:30.049Z,99.60
2019-05-15T21:17:01.196Z,99.50
2019-05-15T21:19:32.447Z,99.40
2019-05-15T21:22:03.691Z,99.50
2019-05-15T21:24:34.667Z,99.60
2019-05-15T21:27:05.407Z,99.50
2019-05-15T21:29:38.182Z,99.60
2019-05-15T21:32:08.908Z,99.60
2019-05-15T21:34:44.072Z,99.70
2019-05-15T21:37:12.528Z,99.70
2019-05-15T21:39:43.446Z,99.80
2019-05-15T21:42:14.594Z,99.70
2019-05-15T21:44:45.121Z,99.70
2019-05-15T21:47:15.811Z,99.70
2019-05-15T21:49:48.213Z,99.80
2019-05-15T21:52:21.217Z,99.80
2019-05-15T21:54:52.208Z,99.70
2019-05-15T21:57:36.398Z,99.90
2019-05-15T22:00:08.775Z,99.90
2019-05-15T22:02:40.382Z,99.90
2019-05-15T22:05:11.635Z,99.90
2019-05-15T22:07:42.753Z,99.90
2019-05-15T22:10:14.260Z,99.90
2019-05-15T22:12:45.163Z,99.90
2019-05-15T22:15:19.036Z,99.90
2019-05-15T22:17:49.558Z,99.90
2019-05-15T22:20:20.807Z,99.90
2019-05-15T22:22:51.516Z,99.90
2019-05-15T22:25:22.279Z,99.90
2019-05-15T22:27:53.256Z,99.90
2019-05-15T22:30:24.786Z,99.90
2019-05-15T22:32:58.469Z,99.90
2019-05-15T22:35:29.567Z,99.90
2019-05-15T22:38:00.423Z,99.90
2019-05-15T22:40:31.052Z,99.90
2019-05-15T22:43:01.907Z,99.90
2019-05-15T22:45:32.599Z,99.90
2019-05-15T22:48:03.355Z,99.80
2019-05-15T22:50:34.152Z,99.90
2019-05-15T22:53:04.843Z,99.90
2019-05-15T22:55:37.530Z,99.90
2019-05-15T22:58:08.730Z,99.90
2019-05-15T23:00:39.620Z,99.90
2019-05-15T23:03:10.433Z,99.90
2019-05-15T23:05:41.144Z,99.90
2019-05-15T23:08:11.824Z,99.90
2019-05-15T23:10:42.328Z,99.90
2019-05-15T23:13:13.238Z,99.90
2019-05-15T23:15:44.129Z,99.90
2019-05-15T23:18:14.688Z,99.90
2019-05-15T23:20:47.755Z,99.90
2019-05-15T23:23:18.262Z,99.90
2019-05-15T23:25:49.803Z,99.90
2019-05-15T23:28:20.468Z,99.90
2019-05-15T23:30:50.929Z,99.90
2019-05-15T23:33:21.737Z,99.90
2019-05-15T23:35:52.649Z,99.90
2019-05-15T23:38:23.745Z,99.90
2019-05-15T23:40:54.625Z,99.90
2019-05-15T23:43:25.441Z,99.90
2019-05-15T23:45:58.759Z,99.90
2019-05-15T23:48:28.836Z,99.90
2019-05-15T23:51:00.236Z,99.90
2019-05-15T23:53:31.293Z,99.90
2019-05-15T23:56:02.285Z,99.90
2019-05-15T23:58:32.804Z,99.90
